MSC Brunella — H3CT — position and weather

sailwx.info

Track history (hours):
 
Tides and Currents Weather Stations Pressure Air Temp Water Temp Dewpoint Dewpoint Depression Visibility Wind Speed Wind Dir Waves Ship Positions

MSC Brunella

Last reported at 2017-Nov-11 14:13 UTC. Time now 2017-Nov-22 02:04 UTC.
Position N 25°12' W 016°42'.
Warning: this ship's position is 10 days out of date.

Length 301 m; draft 13.5 m.

Type: Cargo ship. MMSI: 374361000.

Date/timePositionNaut miles runAvg speedWind from/ knotsBaromVisibWave heightAir tempDewpointWater temp
2017-Nov-11 14:13N 25°12' W 016°42'416.9
2017-Nov-11 14:00N 25°16' W 016°40'917.0
2017-Nov-11 13:30N 25°23' W 016°35'916.9
2017-Nov-11 12:58N 25°31' W 016°30'816.9
2017-Nov-11 12:30N 25°38' W 016°26'916.6
2017-Nov-11 11:59N 25°45' W 016°22'816.9
2017-Nov-11 11:30N 25°53' W 016°17'817.3
2017-Nov-11 11:00N 26°00' W 016°13'1019.9
2017-Nov-11 10:29N 26°09' W 016°07'1021.7
2017-Nov-11 10:00N 26°18' W 016°01'1121.7
2017-Nov-11 09:30N 26°28' W 015°56'1321.2
2017-Nov-11 08:52N 26°40' W 015°48'720.2
2017-Nov-11 08:30N 26°46' W 015°44'4417.8
2017-Nov-11 06:01N 27°24' W 015°20'117.6
2017-Nov-11 05:59N 27°25' W 015°19'917.9
2017-Nov-11 05:30N 27°32' W 015°14'917.6
2017-Nov-11 05:00N 27°41' W 015°11'917.2
2017-Nov-11 04:30N 27°49' W 015°08'917.1
2017-Nov-11 04:00N 27°57' W 015°04'917.3
2017-Nov-11 03:30N 28°05' W 015°01'917.5
2017-Nov-11 03:00N 28°13' W 014°58'917.4
2017-Nov-11 02:30N 28°21' W 014°54'917.5
2017-Nov-11 02:00N 28°29' W 014°50'917.4
2017-Nov-11 01:30N 28°37' W 014°46'917.5
2017-Nov-11 01:00N 28°45' W 014°43'917.5
2017-Nov-11 00:30N 28°53' W 014°37'917.5
2017-Nov-11 00:00N 29°00' W 014°33'917.2
2017-Nov-10 23:30N 29°08' W 014°28'917.1
2017-Nov-10 23:00N 29°16' W 014°24'817.1
2017-Nov-10 22:30N 29°23' W 014°19'917.1
2017-Nov-10 22:00N 29°31' W 014°15'917.2
2017-Nov-10 21:30N 29°38' W 014°10'917.3
2017-Nov-10 21:00N 29°46' W 014°05'917.2
2017-Nov-10 20:30N 29°54' W 014°01'1017.3
2017-Nov-10 19:55N 30°03' W 013°57'817.3
2017-Nov-10 19:27N 30°11' W 013°53'3416.7
2017-Nov-10 17:25N 30°41' W 013°35'716.9
2017-Nov-10 17:00N 30°47' W 013°31'917.0
2017-Nov-10 16:30N 30°55' W 013°27'1616.7
2017-Nov-10 15:31N 31°09' W 013°18'016.6
2017-Nov-10 15:30N 31°10' W 013°18'14317.0
2017-Nov-10 07:07N 33°17' W 012°03'216.6
2017-Nov-10 07:00N 33°19' W 012°02'916.6
2017-Nov-10 06:29N 33°27' W 011°58'816.7
2017-Nov-10 06:00N 33°34' W 011°53'26516.4
2017-Nov-09 13:53N 37°27' W 009°18'616.8
2017-Nov-09 13:30N 37°32' W 009°13'816.7
2017-Nov-09 13:00N 37°38' W 009°06'917.5
2017-Nov-09 12:30N 37°44' W 008°59'917.4
2017-Nov-09 12:00N 37°51' W 008°52'5 9.7
2017-Nov-09 11:30N 37°56' W 008°51'0 0.1
2017-Nov-09 11:00N 37°56' W 008°51'0 0.0
2017-Nov-09 10:30N 37°56' W 008°51'0 0.0
2017-Nov-09 10:00N 37°56' W 008°51'0 0.0
2017-Nov-09 09:30N 37°56' W 008°51'0 0.0
2017-Nov-09 09:00N 37°56' W 008°51'0 0.0
2017-Nov-09 08:30N 37°56' W 008°51'0 0.0
2017-Nov-09 08:00N 37°56' W 008°51'0 0.0
2017-Nov-09 07:30N 37°56' W 008°51'0 0.0
2017-Nov-09 07:00N 37°56' W 008°51'0 0.0
2017-Nov-09 06:30N 37°56' W 008°51'0 0.0
2017-Nov-09 06:00N 37°56' W 008°51'0 0.0
2017-Nov-09 05:30N 37°56' W 008°51'0 0.0
2017-Nov-09 05:00N 37°56' W 008°51'0 0.0
2017-Nov-09 04:30N 37°56' W 008°51'0 0.0
2017-Nov-09 04:00N 37°56' W 008°51'0 0.0
2017-Nov-09 03:30N 37°56' W 008°51'0 0.0
2017-Nov-09 03:00N 37°56' W 008°51'0 0.0
2017-Nov-09 02:30N 37°56' W 008°51'0 0.0
2017-Nov-09 02:00N 37°56' W 008°51'0 0.0
2017-Nov-09 01:30N 37°56' W 008°51'0 0.0
2017-Nov-09 01:00N 37°56' W 008°51'0 0.0
2017-Nov-09 00:30N 37°56' W 008°51'0 0.0
2017-Nov-09 00:00N 37°56' W 008°51'0 0.0
2017-Nov-08 23:30N 37°56' W 008°51'0 0.0
2017-Nov-08 23:00N 37°56' W 008°51'0 0.0
2017-Nov-08 22:30N 37°56' W 008°51'0 0.0
2017-Nov-08 22:00N 37°56' W 008°51'0 0.0
2017-Nov-08 21:30N 37°56' W 008°51'0 0.0
2017-Nov-08 21:00N 37°56' W 008°51'0 0.0
2017-Nov-08 20:30N 37°56' W 008°51'0 0.0
2017-Nov-08 20:00N 37°56' W 008°51'0 0.0
2017-Nov-08 19:30N 37°56' W 008°51'0 0.5
2017-Nov-08 19:00N 37°56' W 008°51'2 3.0
2017-Nov-08 18:30N 37°54' W 008°50'3 5.9
2017-Nov-08 18:00N 37°51' W 008°52'4 7.5
2017-Nov-08 17:30N 37°49' W 008°55'4 8.2
2017-Nov-08 17:00N 37°46' W 008°59'1 1.4
2017-Nov-08 16:30N 37°46' W 008°60'1 1.8
2017-Nov-08 16:00N 37°47' W 008°60'1 1.8
2017-Nov-08 15:30N 37°48' W 009°00'1 1.7
2017-Nov-08 15:00N 37°49' W 009°00'1 1.8
2017-Nov-08 14:30N 37°50' W 009°01'1 1.8
2017-Nov-08 14:00N 37°51' W 009°01'1 1.9
2017-Nov-08 13:30N 37°51' W 009°02'1 1.8
2017-Nov-08 13:00N 37°52' W 009°02'1 1.6
2017-Nov-08 12:30N 37°53' W 009°03'1 1.5
2017-Nov-08 12:00N 37°53' W 009°04'1 1.6
2017-Nov-08 11:30N 37°54' W 009°04'1 1.4
2017-Nov-08 11:00N 37°54' W 009°05'1 2.2
2017-Nov-08 10:30N 37°55' W 009°06'4 9.0
2017-Nov-08 10:00N 37°59' W 009°07'510.0
2017-Nov-08 09:30N 38°02' W 009°12'510.1
2017-Nov-08 09:00N 38°06' W 009°17'510.1
2017-Nov-08 08:30N 38°09' W 009°22'612.4
2017-Nov-08 08:00N 38°13' W 009°29'713.4
2017-Nov-08 07:31N 38°17' W 009°35'714.6
2017-Nov-08 07:00N 38°21' W 009°42'815.4
2017-Nov-08 06:29N 38°27' W 009°50'715.4
2017-Nov-08 06:01N 38°31' W 009°57'814.7
2017-Nov-08 05:29N 38°37' W 010°04'715.3
2017-Nov-08 05:00N 38°44' W 010°06'1015.6
2017-Nov-08 04:23N 38°54' W 010°06'715.4
2017-Nov-08 03:57N 39°00' W 010°06'915.2
2017-Nov-08 03:21N 39°09' W 010°06'715.2
2017-Nov-08 02:52N 39°17' W 010°07'68514.2
2017-Nov-06 02:30N 49°43' W 003°37'816.5
2017-Nov-06 02:01N 49°47' W 003°26'816.9
2017-Nov-06 01:31N 49°52' W 003°15'917.1
2017-Nov-06 01:01N 49°56' W 003°03'816.5
2017-Nov-06 00:31N 49°59' W 002°51'815.9
2017-Nov-06 00:01N 50°01' W 002°39'2313.8
2017-Nov-05 22:22N 50°03' W 002°04'511.7
2017-Nov-05 21:59N 50°04' W 001°57'510.9
2017-Nov-05 21:30N 50°04' W 001°49'510.2
2017-Nov-05 20:58N 50°02' W 001°41'510.2
2017-Nov-05 20:30N 50°01' W 001°34'510.0
2017-Nov-05 20:00N 49°58' W 001°27'510.2
2017-Nov-05 19:30N 49°56' W 001°20'510.4
2017-Nov-05 19:00N 49°53' W 001°13'510.7
2017-Nov-05 18:30N 49°51' W 001°06'612.5
2017-Nov-05 18:00N 49°49' W 000°57'510.2
2017-Nov-05 17:30N 49°45' W 000°51'612.5
2017-Nov-05 17:00N 49°42' W 000°43'714.3
2017-Nov-05 16:30N 49°39' W 000°33'815.3
2017-Nov-05 16:00N 49°35' W 000°22'815.5
2017-Nov-05 15:31N 49°32' W 000°11'612.6
2017-Nov-05 15:00N 49°31' W 000°02'612.2
2017-Nov-05 14:30N 49°28' E 000°06'1 2.5
2017-Nov-05 14:00N 49°28' E 000°08'0 0.0
2017-Nov-05 13:30N 49°28' E 000°08'0 0.0
2017-Nov-05 13:00N 49°28' E 000°08'0 0.0
2017-Nov-05 12:30N 49°28' E 000°08'0 0.0
2017-Nov-05 12:00N 49°28' E 000°08'0 0.0
2017-Nov-05 11:30N 49°28' E 000°08'0 0.0
2017-Nov-05 11:00N 49°28' E 000°08'0 0.0
2017-Nov-05 10:30N 49°28' E 000°08'0 0.0
2017-Nov-05 10:00N 49°28' E 000°08'0 0.0
2017-Nov-05 09:30N 49°28' E 000°08'0 0.0
2017-Nov-05 09:00N 49°28' E 000°08'0 0.0
2017-Nov-05 08:30N 49°28' E 000°08'0 0.0
2017-Nov-05 08:00N 49°28' E 000°08'0 0.0
2017-Nov-05 07:30N 49°28' E 000°08'0 0.0
2017-Nov-05 07:00N 49°28' E 000°08'0 0.0
2017-Nov-05 06:30N 49°28' E 000°08'0 0.0
2017-Nov-05 06:00N 49°28' E 000°08'0 0.0
2017-Nov-05 05:30N 49°28' E 000°08'0 0.0
2017-Nov-05 05:00N 49°28' E 000°08'0 0.0
2017-Nov-05 04:30N 49°28' E 000°08'0 0.0
2017-Nov-05 04:00N 49°28' E 000°08'0 0.0
2017-Nov-05 03:30N 49°28' E 000°08'0 0.0
2017-Nov-05 03:00N 49°28' E 000°08'0 0.0
2017-Nov-05 02:30N 49°28' E 000°08'0 0.0
2017-Nov-05 02:00N 49°28' E 000°08'0 0.0
2017-Nov-05 01:30N 49°28' E 000°08'0 0.0
2017-Nov-05 01:00N 49°28' E 000°08'0 0.0
2017-Nov-05 00:30N 49°28' E 000°08'0 0.0
2017-Nov-05 00:00N 49°28' E 000°08'0 0.0
2017-Nov-04 23:30N 49°28' E 000°08'0 0.0
2017-Nov-04 23:00N 49°28' E 000°08'0 0.0
2017-Nov-04 22:30N 49°28' E 000°08'0 0.0
2017-Nov-04 22:00N 49°28' E 000°08'0 0.0
2017-Nov-04 21:30N 49°28' E 000°08'0 0.0
2017-Nov-04 21:00N 49°28' E 000°08'0 0.0
2017-Nov-04 20:30N 49°28' E 000°08'0 0.0
2017-Nov-04 20:00N 49°28' E 000°08'0 0.2
2017-Nov-04 19:31N 49°28' E 000°08'4 7.4
2017-Nov-04 19:01N 49°29' E 000°03'612.6
2017-Nov-04 18:30N 49°31' W 000°06'4 8.2
2017-Nov-04 18:00N 49°33' W 000°12'510.3
2017-Nov-04 17:30N 49°34' W 000°19'612.4
2017-Nov-04 17:00N 49°36' W 000°28'612.7
2017-Nov-04 16:30N 49°43' W 000°29'613.0
2017-Nov-04 16:00N 49°49' W 000°29'612.2
2017-Nov-04 15:30N 49°55' W 000°27'713.4
2017-Nov-04 15:00N 50°00' W 000°20'713.6
2017-Nov-04 14:30N 50°06' W 000°14'713.6
2017-Nov-04 14:00N 50°11' W 000°08'612.9
2017-Nov-04 13:30N 50°18' W 000°07'815.8
2017-Nov-04 13:00N 50°25' W 000°10'613.0
2017-Nov-04 12:30N 50°28' W 000°00'713.4
2017-Nov-04 12:00N 50°30' E 000°10'713.5
2017-Nov-04 11:30N 50°31' E 000°20'713.5
2017-Nov-04 11:00N 50°33' E 000°30'612.9
2017-Nov-04 10:30N 50°36' E 000°40'612.8
2017-Nov-04 10:00N 50°40' E 000°47'812.6
2017-Nov-04 09:22N 50°44' E 000°58'512.8
2017-Nov-04 09:00N 50°47' E 001°04'612.9
2017-Nov-04 08:30N 50°51' E 001°12'713.8
2017-Nov-04 08:00N 50°56' E 001°19'713.9
2017-Nov-04 07:31N 51°01' E 001°27'714.7
2017-Nov-04 07:01N 51°06' E 001°35'714.8
2017-Nov-04 06:31N 51°11' E 001°43'713.8
2017-Nov-04 06:00N 51°17' E 001°50'612.9
2017-Nov-04 05:30N 51°22' E 001°56'510.1
2017-Nov-04 05:01N 51°24' E 002°04'612.7
2017-Nov-04 04:30N 51°22' E 002°13'611.9
2017-Nov-04 04:01N 51°22' E 002°23'612.1
2017-Nov-04 03:30N 51°23' E 002°32'611.9
2017-Nov-04 03:00N 51°23' E 002°42'510.7
2017-Nov-04 02:30N 51°26' E 002°49'713.9
2017-Nov-04 02:00N 51°25' E 003°00'815.2
2017-Nov-04 01:30N 51°25' E 003°12'815.5
2017-Nov-04 01:00N 51°25' E 003°25'713.4
2017-Nov-04 00:30N 51°26' E 003°35'4 8.4
2017-Nov-04 00:00N 51°26' E 003°42'612.7
2017-Nov-03 23:30N 51°21' E 003°49'611.5
2017-Nov-03 23:00N 51°23' E 003°57'3 6.4
2017-Nov-03 22:31N 51°24' E 004°02'5 9.0
2017-Nov-03 22:00N 51°23' E 004°09'4 8.2
2017-Nov-03 21:30N 51°21' E 004°15'4 7.3
2017-Nov-03 21:00N 51°17' E 004°16'1 1.2
2017-Nov-03 20:31N 51°17' E 004°15'0 0.0
2017-Nov-03 19:59N 51°17' E 004°15'0 0.0
2017-Nov-03 19:29N 51°17' E 004°15'0 0.0
2017-Nov-03 18:59N 51°17' E 004°15'0 0.0
2017-Nov-03 18:29N 51°17' E 004°15'0 0.0
2017-Nov-03 17:59N 51°17' E 004°15'0 0.0
2017-Nov-03 17:29N 51°17' E 004°15'0 0.0
2017-Nov-03 16:59N 51°17' E 004°15'0 0.0
2017-Nov-03 16:29N 51°17' E 004°15'0 0.0
2017-Nov-03 15:59N 51°17' E 004°15'0 0.0
2017-Nov-03 15:29N 51°17' E 004°15'0 0.0
2017-Nov-03 14:59N 51°17' E 004°15'0 0.0
2017-Nov-03 14:29N 51°17' E 004°15'0 0.0
2017-Nov-03 13:59N 51°17' E 004°15'0 0.0
2017-Nov-03 13:29N 51°17' E 004°15'0 0.0
2017-Nov-03 12:59N 51°17' E 004°15'0 0.0
2017-Nov-03 12:29N 51°17' E 004°15'0 0.0
2017-Nov-03 11:59N 51°17' E 004°15'0 0.0
2017-Nov-03 11:29N 51°17' E 004°15'0 0.0
2017-Nov-03 10:59N 51°17' E 004°15'0 0.0
2017-Nov-03 10:29N 51°17' E 004°15'0 0.0
2017-Nov-03 09:59N 51°17' E 004°15'0 0.0
2017-Nov-03 09:29N 51°17' E 004°15'0 0.0
2017-Nov-03 08:59N 51°17' E 004°15'0 0.0
2017-Nov-03 08:29N 51°17' E 004°15'0 0.0
2017-Nov-03 07:59N 51°17' E 004°15'0 0.0
2017-Nov-03 07:29N 51°17' E 004°15'0 0.0
2017-Nov-03 06:59N 51°17' E 004°15'0 0.0
2017-Nov-03 06:29N 51°17' E 004°15'0 0.0
2017-Nov-03 05:59N 51°17' E 004°15'0 0.0
2017-Nov-03 05:29N 51°17' E 004°15'0 0.0
2017-Nov-03 04:59N 51°17' E 004°15'0 0.0
2017-Nov-03 04:29N 51°17' E 004°15'0 0.0
2017-Nov-03 03:59N 51°17' E 004°15'0 0.0
2017-Nov-03 03:29N 51°17' E 004°15'0 0.0
2017-Nov-03 02:59N 51°17' E 004°15'0 0.0
2017-Nov-03 02:29N 51°17' E 004°15'0 0.0
2017-Nov-03 01:59N 51°17' E 004°15'0 0.0
2017-Nov-03 01:29N 51°17' E 004°15'1 1.2
2017-Nov-03 01:00N 51°17' E 004°16'1 2.3
2017-Nov-03 00:30N 51°18' E 004°16'4 7.7
2017-Nov-03 00:00N 51°22' E 004°13'611.8
2017-Nov-02 23:30N 51°22' E 004°04'5 9.2
2017-Nov-02 23:00N 51°25' E 003°58'714.3
2017-Nov-02 22:30N 51°21' E 003°48'815.2
2017-Nov-02 22:00N 51°26' E 003°39'611.2
2017-Nov-02 21:30N 51°25' E 003°30'918.2
2017-Nov-02 21:00N 51°25' E 003°15'917.4
2017-Nov-02 20:30N 51°25' E 003°02'815.6
2017-Nov-02 20:00N 51°32' E 003°06'1019.6
2017-Nov-02 19:30N 51°41' E 003°12'510.3
2017-Nov-02 18:59N 51°46' E 003°14'4 9.1
2017-Nov-02 18:30N 51°50' E 003°16'711.8
2017-Nov-02 17:56N 51°57' E 003°18'19812.3
2017-Nov-02 01:47N 53°59' E 007°37'2 8.4
2017-Nov-02 01:30N 53°59' E 007°41'510.4
2017-Nov-02 01:00N 53°54' E 007°45'611.1
2017-Nov-02 00:30N 53°52' E 007°54'815.7
2017-Nov-02 00:00N 53°50' E 008°06'816.2
2017-Nov-01 23:30N 53°44' E 008°16'815.8
2017-Nov-01 23:00N 53°38' E 008°26'510.9
2017-Nov-01 22:30N 53°34' E 008°32'0 0.2
2017-Nov-01 21:59N 53°34' E 008°32'0 0.0
2017-Nov-01 21:29N 53°34' E 008°32'0 0.0
2017-Nov-01 20:59N 53°34' E 008°32'0 0.0
2017-Nov-01 20:29N 53°34' E 008°32'0 0.0
2017-Nov-01 19:59N 53°34' E 008°32'0 0.0
2017-Nov-01 19:29N 53°34' E 008°32'0 0.0
2017-Nov-01 18:59N 53°34' E 008°32'0 0.0
2017-Nov-01 18:29N 53°34' E 008°32'  
Track history (hours):
 
Tides and Currents Weather Stations Pressure Air Temp Water Temp Dewpoint Dewpoint Depression Visibility Wind Speed Wind Dir Waves Ship Positions

MSC Brunella

Last reported at 2017-Nov-11 14:13 UTC. Time now 2017-Nov-22 02:04 UTC.
Position N 25°12' W 016°42'.
Warning: this ship's position is 10 days out of date.

Length 301 m; draft 13.5 m.

Type: Cargo ship. MMSI: 374361000.

Date/timePositionNaut miles runAvg speedWind from/ knotsBaromVisibWave heightAir tempDewpointWater temp
2017-Nov-11 14:13N 25°12' W 016°42'416.9
2017-Nov-11 14:00N 25°16' W 016°40'917.0
2017-Nov-11 13:30N 25°23' W 016°35'916.9
2017-Nov-11 12:58N 25°31' W 016°30'816.9
2017-Nov-11 12:30N 25°38' W 016°26'916.6
2017-Nov-11 11:59N 25°45' W 016°22'816.9
2017-Nov-11 11:30N 25°53' W 016°17'817.3
2017-Nov-11 11:00N 26°00' W 016°13'1019.9
2017-Nov-11 10:29N 26°09' W 016°07'1021.7
2017-Nov-11 10:00N 26°18' W 016°01'1121.7
2017-Nov-11 09:30N 26°28' W 015°56'1321.2
2017-Nov-11 08:52N 26°40' W 015°48'720.2
2017-Nov-11 08:30N 26°46' W 015°44'4417.8
2017-Nov-11 06:01N 27°24' W 015°20'117.6
2017-Nov-11 05:59N 27°25' W 015°19'917.9
2017-Nov-11 05:30N 27°32' W 015°14'917.6
2017-Nov-11 05:00N 27°41' W 015°11'917.2
2017-Nov-11 04:30N 27°49' W 015°08'917.1
2017-Nov-11 04:00N 27°57' W 015°04'917.3
2017-Nov-11 03:30N 28°05' W 015°01'917.5
2017-Nov-11 03:00N 28°13' W 014°58'917.4
2017-Nov-11 02:30N 28°21' W 014°54'917.5
2017-Nov-11 02:00N 28°29' W 014°50'917.4
2017-Nov-11 01:30N 28°37' W 014°46'917.5
2017-Nov-11 01:00N 28°45' W 014°43'917.5
2017-Nov-11 00:30N 28°53' W 014°37'917.5
2017-Nov-11 00:00N 29°00' W 014°33'917.2
2017-Nov-10 23:30N 29°08' W 014°28'917.1
2017-Nov-10 23:00N 29°16' W 014°24'817.1
2017-Nov-10 22:30N 29°23' W 014°19'917.1
2017-Nov-10 22:00N 29°31' W 014°15'917.2
2017-Nov-10 21:30N 29°38' W 014°10'917.3
2017-Nov-10 21:00N 29°46' W 014°05'917.2
2017-Nov-10 20:30N 29°54' W 014°01'1017.3
2017-Nov-10 19:55N 30°03' W 013°57'817.3
2017-Nov-10 19:27N 30°11' W 013°53'3416.7
2017-Nov-10 17:25N 30°41' W 013°35'716.9
2017-Nov-10 17:00N 30°47' W 013°31'917.0
2017-Nov-10 16:30N 30°55' W 013°27'1616.7
2017-Nov-10 15:31N 31°09' W 013°18'016.6
2017-Nov-10 15:30N 31°10' W 013°18'14317.0
2017-Nov-10 07:07N 33°17' W 012°03'216.6
2017-Nov-10 07:00N 33°19' W 012°02'916.6
2017-Nov-10 06:29N 33°27' W 011°58'816.7
2017-Nov-10 06:00N 33°34' W 011°53'26516.4
2017-Nov-09 13:53N 37°27' W 009°18'616.8
2017-Nov-09 13:30N 37°32' W 009°13'816.7
2017-Nov-09 13:00N 37°38' W 009°06'917.5
2017-Nov-09 12:30N 37°44' W 008°59'917.4
2017-Nov-09 12:00N 37°51' W 008°52'5 9.7
2017-Nov-09 11:30N 37°56' W 008°51'0 0.1
2017-Nov-09 11:00N 37°56' W 008°51'0 0.0
2017-Nov-09 10:30N 37°56' W 008°51'0 0.0
2017-Nov-09 10:00N 37°56' W 008°51'0 0.0
2017-Nov-09 09:30N 37°56' W 008°51'0 0.0
2017-Nov-09 09:00N 37°56' W 008°51'0 0.0
2017-Nov-09 08:30N 37°56' W 008°51'0 0.0
2017-Nov-09 08:00N 37°56' W 008°51'0 0.0
2017-Nov-09 07:30N 37°56' W 008°51'0 0.0
2017-Nov-09 07:00N 37°56' W 008°51'0 0.0
2017-Nov-09 06:30N 37°56' W 008°51'0 0.0
2017-Nov-09 06:00N 37°56' W 008°51'0 0.0
2017-Nov-09 05:30N 37°56' W 008°51'0 0.0
2017-Nov-09 05:00N 37°56' W 008°51'0 0.0
2017-Nov-09 04:30N 37°56' W 008°51'0 0.0
2017-Nov-09 04:00N 37°56' W 008°51'0 0.0
2017-Nov-09 03:30N 37°56' W 008°51'0 0.0
2017-Nov-09 03:00N 37°56' W 008°51'0 0.0
2017-Nov-09 02:30N 37°56' W 008°51'0 0.0
2017-Nov-09 02:00N 37°56' W 008°51'0 0.0
2017-Nov-09 01:30N 37°56' W 008°51'0 0.0
2017-Nov-09 01:00N 37°56' W 008°51'0 0.0
2017-Nov-09 00:30N 37°56' W 008°51'0 0.0
2017-Nov-09 00:00N 37°56' W 008°51'0 0.0
2017-Nov-08 23:30N 37°56' W 008°51'0 0.0
2017-Nov-08 23:00N 37°56' W 008°51'0 0.0
2017-Nov-08 22:30N 37°56' W 008°51'0 0.0
2017-Nov-08 22:00N 37°56' W 008°51'0 0.0
2017-Nov-08 21:30N 37°56' W 008°51'0 0.0
2017-Nov-08 21:00N 37°56' W 008°51'0 0.0
2017-Nov-08 20:30N 37°56' W 008°51'0 0.0
2017-Nov-08 20:00N 37°56' W 008°51'0 0.0
2017-Nov-08 19:30N 37°56' W 008°51'0 0.5
2017-Nov-08 19:00N 37°56' W 008°51'2 3.0
2017-Nov-08 18:30N 37°54' W 008°50'3 5.9
2017-Nov-08 18:00N 37°51' W 008°52'4 7.5
2017-Nov-08 17:30N 37°49' W 008°55'4 8.2
2017-Nov-08 17:00N 37°46' W 008°59'1 1.4
2017-Nov-08 16:30N 37°46' W 008°60'1 1.8
2017-Nov-08 16:00N 37°47' W 008°60'1 1.8
2017-Nov-08 15:30N 37°48' W 009°00'1 1.7
2017-Nov-08 15:00N 37°49' W 009°00'1 1.8
2017-Nov-08 14:30N 37°50' W 009°01'1 1.8
2017-Nov-08 14:00N 37°51' W 009°01'1 1.9
2017-Nov-08 13:30N 37°51' W 009°02'1 1.8
2017-Nov-08 13:00N 37°52' W 009°02'1 1.6
2017-Nov-08 12:30N 37°53' W 009°03'1 1.5
2017-Nov-08 12:00N 37°53' W 009°04'1 1.6
2017-Nov-08 11:30N 37°54' W 009°04'1 1.4
2017-Nov-08 11:00N 37°54' W 009°05'1 2.2
2017-Nov-08 10:30N 37°55' W 009°06'4 9.0
2017-Nov-08 10:00N 37°59' W 009°07'510.0
2017-Nov-08 09:30N 38°02' W 009°12'510.1
2017-Nov-08 09:00N 38°06' W 009°17'510.1
2017-Nov-08 08:30N 38°09' W 009°22'612.4
2017-Nov-08 08:00N 38°13' W 009°29'713.4
2017-Nov-08 07:31N 38°17' W 009°35'714.6
2017-Nov-08 07:00N 38°21' W 009°42'815.4
2017-Nov-08 06:29N 38°27' W 009°50'715.4
2017-Nov-08 06:01N 38°31' W 009°57'814.7
2017-Nov-08 05:29N 38°37' W 010°04'715.3
2017-Nov-08 05:00N 38°44' W 010°06'1015.6
2017-Nov-08 04:23N 38°54' W 010°06'715.4
2017-Nov-08 03:57N 39°00' W 010°06'915.2
2017-Nov-08 03:21N 39°09' W 010°06'715.2
2017-Nov-08 02:52N 39°17' W 010°07'68514.2
2017-Nov-06 02:30N 49°43' W 003°37'816.5
2017-Nov-06 02:01N 49°47' W 003°26'816.9
2017-Nov-06 01:31N 49°52' W 003°15'917.1
2017-Nov-06 01:01N 49°56' W 003°03'816.5
2017-Nov-06 00:31N 49°59' W 002°51'815.9
2017-Nov-06 00:01N 50°01' W 002°39'2313.8
2017-Nov-05 22:22N 50°03' W 002°04'511.7
2017-Nov-05 21:59N 50°04' W 001°57'510.9
2017-Nov-05 21:30N 50°04' W 001°49'510.2
2017-Nov-05 20:58N 50°02' W 001°41'510.2
2017-Nov-05 20:30N 50°01' W 001°34'510.0
2017-Nov-05 20:00N 49°58' W 001°27'510.2
2017-Nov-05 19:30N 49°56' W 001°20'510.4
2017-Nov-05 19:00N 49°53' W 001°13'510.7
2017-Nov-05 18:30N 49°51' W 001°06'612.5
2017-Nov-05 18:00N 49°49' W 000°57'510.2
2017-Nov-05 17:30N 49°45' W 000°51'612.5
2017-Nov-05 17:00N 49°42' W 000°43'714.3
2017-Nov-05 16:30N 49°39' W 000°33'815.3
2017-Nov-05 16:00N 49°35' W 000°22'815.5
2017-Nov-05 15:31N 49°32' W 000°11'612.6
2017-Nov-05 15:00N 49°31' W 000°02'612.2
2017-Nov-05 14:30N 49°28' E 000°06'1 2.5
2017-Nov-05 14:00N 49°28' E 000°08'0 0.0
2017-Nov-05 13:30N 49°28' E 000°08'0 0.0
2017-Nov-05 13:00N 49°28' E 000°08'0 0.0
2017-Nov-05 12:30N 49°28' E 000°08'0 0.0
2017-Nov-05 12:00N 49°28' E 000°08'0 0.0
2017-Nov-05 11:30N 49°28' E 000°08'0 0.0
2017-Nov-05 11:00N 49°28' E 000°08'0 0.0
2017-Nov-05 10:30N 49°28' E 000°08'0 0.0
2017-Nov-05 10:00N 49°28' E 000°08'0 0.0
2017-Nov-05 09:30N 49°28' E 000°08'0 0.0
2017-Nov-05 09:00N 49°28' E 000°08'0 0.0
2017-Nov-05 08:30N 49°28' E 000°08'0 0.0
2017-Nov-05 08:00N 49°28' E 000°08'0 0.0
2017-Nov-05 07:30N 49°28' E 000°08'0 0.0
2017-Nov-05 07:00N 49°28' E 000°08'0 0.0
2017-Nov-05 06:30N 49°28' E 000°08'0 0.0
2017-Nov-05 06:00N 49°28' E 000°08'0 0.0
2017-Nov-05 05:30N 49°28' E 000°08'0 0.0
2017-Nov-05 05:00N 49°28' E 000°08'0 0.0
2017-Nov-05 04:30N 49°28' E 000°08'0 0.0
2017-Nov-05 04:00N 49°28' E 000°08'0 0.0
2017-Nov-05 03:30N 49°28' E 000°08'0 0.0
2017-Nov-05 03:00N 49°28' E 000°08'0 0.0
2017-Nov-05 02:30N 49°28' E 000°08'0 0.0
2017-Nov-05 02:00N 49°28' E 000°08'0 0.0
2017-Nov-05 01:30N 49°28' E 000°08'0 0.0
2017-Nov-05 01:00N 49°28' E 000°08'0 0.0
2017-Nov-05 00:30N 49°28' E 000°08'0 0.0
2017-Nov-05 00:00N 49°28' E 000°08'0 0.0
2017-Nov-04 23:30N 49°28' E 000°08'0 0.0
2017-Nov-04 23:00N 49°28' E 000°08'0 0.0
2017-Nov-04 22:30N 49°28' E 000°08'0 0.0
2017-Nov-04 22:00N 49°28' E 000°08'0 0.0
2017-Nov-04 21:30N 49°28' E 000°08'0 0.0
2017-Nov-04 21:00N 49°28' E 000°08'0 0.0
2017-Nov-04 20:30N 49°28' E 000°08'0 0.0
2017-Nov-04 20:00N 49°28' E 000°08'0 0.2
2017-Nov-04 19:31N 49°28' E 000°08'4 7.4
2017-Nov-04 19:01N 49°29' E 000°03'612.6
2017-Nov-04 18:30N 49°31' W 000°06'4 8.2
2017-Nov-04 18:00N 49°33' W 000°12'510.3
2017-Nov-04 17:30N 49°34' W 000°19'612.4
2017-Nov-04 17:00N 49°36' W 000°28'612.7
2017-Nov-04 16:30N 49°43' W 000°29'613.0
2017-Nov-04 16:00N 49°49' W 000°29'612.2
2017-Nov-04 15:30N 49°55' W 000°27'713.4
2017-Nov-04 15:00N 50°00' W 000°20'713.6
2017-Nov-04 14:30N 50°06' W 000°14'713.6
2017-Nov-04 14:00N 50°11' W 000°08'612.9
2017-Nov-04 13:30N 50°18' W 000°07'815.8
2017-Nov-04 13:00N 50°25' W 000°10'613.0
2017-Nov-04 12:30N 50°28' W 000°00'713.4
2017-Nov-04 12:00N 50°30' E 000°10'713.5
2017-Nov-04 11:30N 50°31' E 000°20'713.5
2017-Nov-04 11:00N 50°33' E 000°30'612.9
2017-Nov-04 10:30N 50°36' E 000°40'612.8
2017-Nov-04 10:00N 50°40' E 000°47'812.6
2017-Nov-04 09:22N 50°44' E 000°58'512.8
2017-Nov-04 09:00N 50°47' E 001°04'612.9
2017-Nov-04 08:30N 50°51' E 001°12'713.8
2017-Nov-04 08:00N 50°56' E 001°19'713.9
2017-Nov-04 07:31N 51°01' E 001°27'714.7
2017-Nov-04 07:01N 51°06' E 001°35'714.8
2017-Nov-04 06:31N 51°11' E 001°43'713.8
2017-Nov-04 06:00N 51°17' E 001°50'612.9
2017-Nov-04 05:30N 51°22' E 001°56'510.1
2017-Nov-04 05:01N 51°24' E 002°04'612.7
2017-Nov-04 04:30N 51°22' E 002°13'611.9
2017-Nov-04 04:01N 51°22' E 002°23'612.1
2017-Nov-04 03:30N 51°23' E 002°32'611.9
2017-Nov-04 03:00N 51°23' E 002°42'510.7
2017-Nov-04 02:30N 51°26' E 002°49'713.9
2017-Nov-04 02:00N 51°25' E 003°00'815.2
2017-Nov-04 01:30N 51°25' E 003°12'815.5
2017-Nov-04 01:00N 51°25' E 003°25'713.4
2017-Nov-04 00:30N 51°26' E 003°35'4 8.4
2017-Nov-04 00:00N 51°26' E 003°42'612.7
2017-Nov-03 23:30N 51°21' E 003°49'611.5
2017-Nov-03 23:00N 51°23' E 003°57'3 6.4
2017-Nov-03 22:31N 51°24' E 004°02'5 9.0
2017-Nov-03 22:00N 51°23' E 004°09'4 8.2
2017-Nov-03 21:30N 51°21' E 004°15'4 7.3
2017-Nov-03 21:00N 51°17' E 004°16'1 1.2
2017-Nov-03 20:31N 51°17' E 004°15'0 0.0
2017-Nov-03 19:59N 51°17' E 004°15'0 0.0
2017-Nov-03 19:29N 51°17' E 004°15'0 0.0
2017-Nov-03 18:59N 51°17' E 004°15'0 0.0
2017-Nov-03 18:29N 51°17' E 004°15'0 0.0
2017-Nov-03 17:59N 51°17' E 004°15'0 0.0
2017-Nov-03 17:29N 51°17' E 004°15'0 0.0
2017-Nov-03 16:59N 51°17' E 004°15'0 0.0
2017-Nov-03 16:29N 51°17' E 004°15'0 0.0
2017-Nov-03 15:59N 51°17' E 004°15'0 0.0
2017-Nov-03 15:29N 51°17' E 004°15'0 0.0
2017-Nov-03 14:59N 51°17' E 004°15'0 0.0
2017-Nov-03 14:29N 51°17' E 004°15'0 0.0
2017-Nov-03 13:59N 51°17' E 004°15'0 0.0
2017-Nov-03 13:29N 51°17' E 004°15'0 0.0
2017-Nov-03 12:59N 51°17' E 004°15'0 0.0
2017-Nov-03 12:29N 51°17' E 004°15'0 0.0
2017-Nov-03 11:59N 51°17' E 004°15'0 0.0
2017-Nov-03 11:29N 51°17' E 004°15'0 0.0
2017-Nov-03 10:59N 51°17' E 004°15'0 0.0
2017-Nov-03 10:29N 51°17' E 004°15'0 0.0
2017-Nov-03 09:59N 51°17' E 004°15'0 0.0
2017-Nov-03 09:29N 51°17' E 004°15'0 0.0
2017-Nov-03 08:59N 51°17' E 004°15'0 0.0
2017-Nov-03 08:29N 51°17' E 004°15'0 0.0
2017-Nov-03 07:59N 51°17' E 004°15'0 0.0
2017-Nov-03 07:29N 51°17' E 004°15'0 0.0
2017-Nov-03 06:59N 51°17' E 004°15'0 0.0
2017-Nov-03 06:29N 51°17' E 004°15'0 0.0
2017-Nov-03 05:59N 51°17' E 004°15'0 0.0
2017-Nov-03 05:29N 51°17' E 004°15'0 0.0
2017-Nov-03 04:59N 51°17' E 004°15'0 0.0
2017-Nov-03 04:29N 51°17' E 004°15'0 0.0
2017-Nov-03 03:59N 51°17' E 004°15'0 0.0
2017-Nov-03 03:29N 51°17' E 004°15'0 0.0
2017-Nov-03 02:59N 51°17' E 004°15'0 0.0
2017-Nov-03 02:29N 51°17' E 004°15'0 0.0
2017-Nov-03 01:59N 51°17' E 004°15'0 0.0
2017-Nov-03 01:29N 51°17' E 004°15'1 1.2
2017-Nov-03 01:00N 51°17' E 004°16'1 2.3
2017-Nov-03 00:30N 51°18' E 004°16'4 7.7
2017-Nov-03 00:00N 51°22' E 004°13'611.8
2017-Nov-02 23:30N 51°22' E 004°04'5 9.2
2017-Nov-02 23:00N 51°25' E 003°58'714.3
2017-Nov-02 22:30N 51°21' E 003°48'815.2
2017-Nov-02 22:00N 51°26' E 003°39'611.2
2017-Nov-02 21:30N 51°25' E 003°30'918.2
2017-Nov-02 21:00N 51°25' E 003°15'917.4
2017-Nov-02 20:30N 51°25' E 003°02'815.6
2017-Nov-02 20:00N 51°32' E 003°06'1019.6
2017-Nov-02 19:30N 51°41' E 003°12'510.3
2017-Nov-02 18:59N 51°46' E 003°14'4 9.1
2017-Nov-02 18:30N 51°50' E 003°16'711.8
2017-Nov-02 17:56N 51°57' E 003°18'19812.3
2017-Nov-02 01:47N 53°59' E 007°37'2 8.4
2017-Nov-02 01:30N 53°59' E 007°41'510.4
2017-Nov-02 01:00N 53°54' E 007°45'611.1
2017-Nov-02 00:30N 53°52' E 007°54'815.7
2017-Nov-02 00:00N 53°50' E 008°06'816.2
2017-Nov-01 23:30N 53°44' E 008°16'815.8
2017-Nov-01 23:00N 53°38' E 008°26'510.9
2017-Nov-01 22:30N 53°34' E 008°32'0 0.2
2017-Nov-01 21:59N 53°34' E 008°32'0 0.0
2017-Nov-01 21:29N 53°34' E 008°32'0 0.0
2017-Nov-01 20:59N 53°34' E 008°32'0 0.0
2017-Nov-01 20:29N 53°34' E 008°32'0 0.0
2017-Nov-01 19:59N 53°34' E 008°32'0 0.0
2017-Nov-01 19:29N 53°34' E 008°32'0 0.0
2017-Nov-01 18:59N 53°34' E 008°32'0 0.0
2017-Nov-01 18:29N 53°34' E 008°32'  

Dump ship's entire track history